sensor_id;sensor_type;location;lat;lon;timestamp;pressure;altitude;pressure_sealevel;temperature
54746;BMP180;40640;48.130;11.356;2023-04-03T00:02:01;96074.00;;;5.70
54746;BMP180;40640;48.130;11.356;2023-04-03T00:06:04;96075.00;;;5.70
54746;BMP180;40640;48.130;11.356;2023-04-03T00:10:09;96082.00;;;5.60
54746;BMP180;40640;48.130;11.356;2023-04-03T00:14:13;96084.00;;;5.60
54746;BMP180;40640;48.130;11.356;2023-04-03T00:18:16;96083.00;;;5.70
54746;BMP180;40640;48.130;11.356;2023-04-03T00:22:18;96071.00;;;5.40
54746;BMP180;40640;48.130;11.356;2023-04-03T00:26:21;96074.00;;;5.20
54746;BMP180;40640;48.130;11.356;2023-04-03T00:30:26;96068.00;;;5.20
54746;BMP180;40640;48.130;11.356;2023-04-03T00:34:29;96072.00;;;5.40
54746;BMP180;40640;48.130;11.356;2023-04-03T00:38:32;96074.00;;;5.30
54746;BMP180;40640;48.130;11.356;2023-04-03T00:42:36;96076.00;;;5.50
54746;BMP180;40640;48.130;11.356;2023-04-03T00:46:40;96066.00;;;5.50
54746;BMP180;40640;48.130;11.356;2023-04-03T00:50:44;96068.00;;;5.40
54746;BMP180;40640;48.130;11.356;2023-04-03T00:54:50;96068.00;;;5.40
54746;BMP180;40640;48.130;11.356;2023-04-03T00:58:58;96075.00;;;5.30
54746;BMP180;40640;48.130;11.356;2023-04-03T01:03:03;96067.00;;;5.20
54746;BMP180;40640;48.130;11.356;2023-04-03T01:07:09;96068.00;;;5.20
54746;BMP180;40640;48.130;11.356;2023-04-03T01:11:12;96068.00;;;5.30
54746;BMP180;40640;48.130;11.356;2023-04-03T01:15:18;96063.00;;;5.10
54746;BMP180;40640;48.130;11.356;2023-04-03T01:19:23;96070.00;;;5.00
54746;BMP180;40640;48.130;11.356;2023-04-03T01:23:41;96067.00;;;5.10
54746;BMP180;40640;48.130;11.356;2023-04-03T01:27:47;96071.00;;;5.20
54746;BMP180;40640;48.130;11.356;2023-04-03T01:31:52;96071.00;;;5.10
54746;BMP180;40640;48.130;11.356;2023-04-03T01:35:56;96077.00;;;5.10
54746;BMP180;40640;48.130;11.356;2023-04-03T01:39:59;96072.00;;;5.10
54746;BMP180;40640;48.130;11.356;2023-04-03T01:44:02;96075.00;;;5.00
54746;BMP180;40640;48.130;11.356;2023-04-03T01:48:07;96063.00;;;5.10
54746;BMP180;40640;48.130;11.356;2023-04-03T01:52:10;96067.00;;;5.00
54746;BMP180;40640;48.130;11.356;2023-04-03T01:56:13;96067.00;;;5.00
54746;BMP180;40640;48.130;11.356;2023-04-03T02:00:17;96071.00;;;5.00
54746;BMP180;40640;48.130;11.356;2023-04-03T02:04:21;96065.00;;;4.90
54746;BMP180;40640;48.130;11.356;2023-04-03T02:08:24;96056.00;;;5.00
54746;BMP180;40640;48.130;11.356;2023-04-03T02:12:27;96058.00;;;5.10
54746;BMP180;40640;48.130;11.356;2023-04-03T02:16:30;96065.00;;;4.90
54746;BMP180;40640;48.130;11.356;2023-04-03T02:20:34;96060.00;;;4.80
54746;BMP180;40640;48.130;11.356;2023-04-03T02:24:37;96068.00;;;4.80
54746;BMP180;40640;48.130;11.356;2023-04-03T02:28:42;96062.00;;;5.00
54746;BMP180;40640;48.130;11.356;2023-04-03T02:32:44;96062.00;;;5.00
54746;BMP180;40640;48.130;11.356;2023-04-03T02:36:49;96062.00;;;4.90
54746;BMP180;40640;48.130;11.356;2023-04-03T02:40:53;96060.00;;;4.90
54746;BMP180;40640;48.130;11.356;2023-04-03T02:44:57;96059.00;;;4.90
54746;BMP180;40640;48.130;11.356;2023-04-03T02:49:02;96059.00;;;5.00
54746;BMP180;40640;48.130;11.356;2023-04-03T02:53:06;96074.00;;;4.90
54746;BMP180;40640;48.130;11.356;2023-04-03T02:57:09;96067.00;;;4.90
54746;BMP180;40640;48.130;11.356;2023-04-03T03:01:12;96066.00;;;4.90
54746;BMP180;40640;48.130;11.356;2023-04-03T03:05:17;96060.00;;;4.90
54746;BMP180;40640;48.130;11.356;2023-04-03T03:09:21;96061.00;;;4.80
54746;BMP180;40640;48.130;11.356;2023-04-03T03:13:24;96063.00;;;4.80
54746;BMP180;40640;48.130;11.356;2023-04-03T03:17:27;96066.00;;;4.90
54746;BMP180;40640;48.130;11.356;2023-04-03T03:21:30;96056.00;;;4.80
54746;BMP180;40640;48.130;11.356;2023-04-03T03:25:37;96052.00;;;4.80
54746;BMP180;40640;48.130;11.356;2023-04-03T03:29:41;96068.00;;;4.80
54746;BMP180;40640;48.130;11.356;2023-04-03T03:33:45;96061.00;;;4.80
54746;BMP180;40640;48.130;11.356;2023-04-03T03:37:48;96054.00;;;4.70
54746;BMP180;40640;48.130;11.356;2023-04-03T03:41:52;96061.00;;;4.70
54746;BMP180;40640;48.130;11.356;2023-04-03T03:45:56;96061.00;;;4.80
54746;BMP180;40640;48.130;11.356;2023-04-03T03:50:00;96065.00;;;4.80
54746;BMP180;40640;48.130;11.356;2023-04-03T03:54:04;96056.00;;;4.90
54746;BMP180;40640;48.130;11.356;2023-04-03T03:58:09;96069.00;;;4.80
54746;BMP180;40640;48.130;11.356;2023-04-03T04:02:12;96062.00;;;4.90
54746;BMP180;40640;48.130;11.356;2023-04-03T04:06:16;96062.00;;;4.80
54746;BMP180;40640;48.130;11.356;2023-04-03T04:10:20;96062.00;;;4.80
54746;BMP180;40640;48.130;11.356;2023-04-03T04:14:24;96058.00;;;4.80
54746;BMP180;40640;48.130;11.356;2023-04-03T04:18:28;96053.00;;;4.70
54746;BMP180;40640;48.130;11.356;2023-04-03T04:22:32;96058.00;;;4.70
54746;BMP180;40640;48.130;11.356;2023-04-03T04:26:34;96070.00;;;4.80
54746;BMP180;40640;48.130;11.356;2023-04-03T04:30:39;96069.00;;;4.90
54746;BMP180;40640;48.130;11.356;2023-04-03T04:34:43;96070.00;;;4.90
54746;BMP180;40640;48.130;11.356;2023-04-03T04:38:46;96074.00;;;4.80
54746;BMP180;40640;48.130;11.356;2023-04-03T04:42:49;96076.00;;;4.80
54746;BMP180;40640;48.130;11.356;2023-04-03T04:46:54;96073.00;;;4.90
54746;BMP180;40640;48.130;11.356;2023-04-03T04:50:57;96074.00;;;4.90
54746;BMP180;40640;48.130;11.356;2023-04-03T04:55:00;96071.00;;;4.70
54746;BMP180;40640;48.130;11.356;2023-04-03T04:59:03;96074.00;;;4.80
54746;BMP180;40640;48.130;11.356;2023-04-03T05:03:08;96069.00;;;4.80
54746;BMP180;40640;48.130;11.356;2023-04-03T05:07:11;96077.00;;;4.70
54746;BMP180;40640;48.130;11.356;2023-04-03T05:11:14;96089.00;;;4.90
54746;BMP180;40640;48.130;11.356;2023-04-03T05:15:19;96075.00;;;4.70
54746;BMP180;40640;48.130;11.356;2023-04-03T05:19:23;96082.00;;;4.80
54746;BMP180;40640;48.130;11.356;2023-04-03T05:23:26;96078.00;;;4.70
54746;BMP180;40640;48.130;11.356;2023-04-03T05:27:32;96091.00;;;4.80
54746;BMP180;40640;48.130;11.356;2023-04-03T05:31:35;96082.00;;;4.80
54746;BMP180;40640;48.130;11.356;2023-04-03T05:35:43;96088.00;;;4.80
54746;BMP180;40640;48.130;11.356;2023-04-03T05:39:52;96093.00;;;4.80
54746;BMP180;40640;48.130;11.356;2023-04-03T05:43:55;96093.00;;;4.80
54746;BMP180;40640;48.130;11.356;2023-04-03T05:47:59;96088.00;;;4.80
54746;BMP180;40640;48.130;11.356;2023-04-03T05:52:05;96081.00;;;4.80
54746;BMP180;40640;48.130;11.356;2023-04-03T05:56:08;96090.00;;;4.90
54746;BMP180;40640;48.130;11.356;2023-04-03T06:00:14;96091.00;;;4.90
54746;BMP180;40640;48.130;11.356;2023-04-03T06:04:26;96094.00;;;5.00
54746;BMP180;40640;48.130;11.356;2023-04-03T06:08:30;96094.00;;;4.90
54746;BMP180;40640;48.130;11.356;2023-04-03T06:12:34;96100.00;;;4.90
54746;BMP180;40640;48.130;11.356;2023-04-03T06:16:37;96104.00;;;5.00
54746;BMP180;40640;48.130;11.356;2023-04-03T06:20:41;96097.00;;;5.10
54746;BMP180;40640;48.130;11.356;2023-04-03T06:24:45;96101.00;;;5.10
54746;BMP180;40640;48.130;11.356;2023-04-03T06:28:48;96109.00;;;5.20
54746;BMP180;40640;48.130;11.356;2023-04-03T06:32:51;96102.00;;;5.10
54746;BMP180;40640;48.130;11.356;2023-04-03T06:36:54;96114.00;;;5.20
54746;BMP180;40640;48.130;11.356;2023-04-03T06:40:58;96103.00;;;5.50
54746;BMP180;40640;48.130;11.356;2023-04-03T06:45:01;96104.00;;;5.30
54746;BMP180;40640;48.130;11.356;2023-04-03T06:49:05;96106.00;;;5.30
54746;BMP180;40640;48.130;11.356;2023-04-03T06:53:09;96114.00;;;5.40
54746;BMP180;40640;48.130;11.356;2023-04-03T06:57:14;96116.00;;;5.60
54746;BMP180;40640;48.130;11.356;2023-04-03T07:01:18;96115.00;;;5.70
54746;BMP180;40640;48.130;11.356;2023-04-03T07:05:21;96121.00;;;5.60
54746;BMP180;40640;48.130;11.356;2023-04-03T07:09:24;96128.00;;;5.80
54746;BMP180;40640;48.130;11.356;2023-04-03T07:13:28;96132.00;;;5.80
54746;BMP180;40640;48.130;11.356;2023-04-03T07:17:31;96135.00;;;6.00
54746;BMP180;40640;48.130;11.356;2023-04-03T07:21:34;96137.00;;;5.90
54746;BMP180;40640;48.130;11.356;2023-04-03T07:25:42;96143.00;;;6.00
54746;BMP180;40640;48.130;11.356;2023-04-03T07:29:46;96141.00;;;6.30
54746;BMP180;40640;48.130;11.356;2023-04-03T07:33:50;96139.00;;;6.50
54746;BMP180;40640;48.130;11.356;2023-04-03T07:37:52;96145.00;;;6.70
54746;BMP180;40640;48.130;11.356;2023-04-03T07:41:55;96151.00;;;6.70
54746;BMP180;40640;48.130;11.356;2023-04-03T07:46:00;96159.00;;;6.80
54746;BMP180;40640;48.130;11.356;2023-04-03T07:50:03;96162.00;;;6.70
54746;BMP180;40640;48.130;11.356;2023-04-03T07:54:06;96147.00;;;6.60
54746;BMP180;40640;48.130;11.356;2023-04-03T07:58:10;96163.00;;;6.60
54746;BMP180;40640;48.130;11.356;2023-04-03T08:02:14;96173.00;;;6.70
54746;BMP180;40640;48.130;11.356;2023-04-03T08:06:18;96172.00;;;6.80
54746;BMP180;40640;48.130;11.356;2023-04-03T08:10:34;96178.00;;;6.90
54746;BMP180;40640;48.130;11.356;2023-04-03T08:14:37;96169.00;;;6.80
54746;BMP180;40640;48.130;11.356;2023-04-03T08:18:41;96180.00;;;6.90
54746;BMP180;40640;48.130;11.356;2023-04-03T08:22:44;96177.00;;;7.00
54746;BMP180;40640;48.130;11.356;2023-04-03T08:26:47;96183.00;;;6.90
54746;BMP180;40640;48.130;11.356;2023-04-03T08:30:49;96174.00;;;6.80
54746;BMP180;40640;48.130;11.356;2023-04-03T08:34:54;96176.00;;;6.90
54746;BMP180;40640;48.130;11.356;2023-04-03T08:38:57;96179.00;;;7.10
54746;BMP180;40640;48.130;11.356;2023-04-03T08:43:12;96187.00;;;7.00
54746;BMP180;40640;48.130;11.356;2023-04-03T08:47:23;96191.00;;;6.90
54746;BMP180;40640;48.130;11.356;2023-04-03T08:51:28;96190.00;;;6.90
54746;BMP180;40640;48.130;11.356;2023-04-03T08:55:34;96182.00;;;6.70
54746;BMP180;40640;48.130;11.356;2023-04-03T08:59:40;96192.00;;;6.90
54746;BMP180;40640;48.130;11.356;2023-04-03T09:03:43;96193.00;;;6.70
54746;BMP180;40640;48.130;11.356;2023-04-03T09:07:54;96190.00;;;6.50
54746;BMP180;40640;48.130;11.356;2023-04-03T09:12:04;96188.00;;;6.60
54746;BMP180;40640;48.130;11.356;2023-04-03T09:16:20;96193.00;;;6.60
54746;BMP180;40640;48.130;11.356;2023-04-03T09:20:29;96186.00;;;6.70
54746;BMP180;40640;48.130;11.356;2023-04-03T09:24:35;96192.00;;;6.90
54746;BMP180;40640;48.130;11.356;2023-04-03T09:28:40;96192.00;;;6.50
54746;BMP180;40640;48.130;11.356;2023-04-03T09:32:52;96196.00;;;6.50
54746;BMP180;40640;48.130;11.356;2023-04-03T09:36:56;96185.00;;;7.00
54746;BMP180;40640;48.130;11.356;2023-04-03T09:41:05;96193.00;;;7.20
54746;BMP180;40640;48.130;11.356;2023-04-03T09:45:21;96186.00;;;7.50
54746;BMP180;40640;48.130;11.356;2023-04-03T09:49:25;96193.00;;;7.60
54746;BMP180;40640;48.130;11.356;2023-04-03T09:53:32;96192.00;;;7.40
54746;BMP180;40640;48.130;11.356;2023-04-03T09:57:38;96188.00;;;7.10
54746;BMP180;40640;48.130;11.356;2023-04-03T10:01:43;96190.00;;;7.40
54746;BMP180;40640;48.130;11.356;2023-04-03T10:05:47;96189.00;;;7.80
54746;BMP180;40640;48.130;11.356;2023-04-03T10:09:55;96183.00;;;8.00
54746;BMP180;40640;48.130;11.356;2023-04-03T10:14:00;96188.00;;;8.00
54746;BMP180;40640;48.130;11.356;2023-04-03T10:18:08;96185.00;;;7.70
54746;BMP180;40640;48.130;11.356;2023-04-03T10:22:34;96188.00;;;7.50
54746;BMP180;40640;48.130;11.356;2023-04-03T10:26:46;96193.00;;;7.40
54746;BMP180;40640;48.130;11.356;2023-04-03T10:30:57;96184.00;;;7.40
54746;BMP180;40640;48.130;11.356;2023-04-03T10:35:08;96181.00;;;7.40
54746;BMP180;40640;48.130;11.356;2023-04-03T10:39:21;96180.00;;;7.40
54746;BMP180;40640;48.130;11.356;2023-04-03T10:43:33;96183.00;;;7.20
54746;BMP180;40640;48.130;11.356;2023-04-03T10:47:44;96187.00;;;7.20
54746;BMP180;40640;48.130;11.356;2023-04-03T10:51:56;96190.00;;;7.20
54746;BMP180;40640;48.130;11.356;2023-04-03T10:56:05;96184.00;;;7.00
54746;BMP180;40640;48.130;11.356;2023-04-03T11:00:16;96184.00;;;6.90
54746;BMP180;40640;48.130;11.356;2023-04-03T11:04:24;96179.00;;;6.90
54746;BMP180;40640;48.130;11.356;2023-04-03T11:08:33;96185.00;;;7.20
54746;BMP180;40640;48.130;11.356;2023-04-03T11:12:41;96178.00;;;7.10
54746;BMP180;40640;48.130;11.356;2023-04-03T11:17:01;96178.00;;;7.10
54746;BMP180;40640;48.130;11.356;2023-04-03T11:21:12;96177.00;;;7.10
54746;BMP180;40640;48.130;11.356;2023-04-03T11:25:20;96170.00;;;7.00
54746;BMP180;40640;48.130;11.356;2023-04-03T11:29:26;96172.00;;;6.50
54746;BMP180;40640;48.130;11.356;2023-04-03T11:33:42;96169.00;;;6.10
54746;BMP180;40640;48.130;11.356;2023-04-03T11:37:50;96163.00;;;5.80
54746;BMP180;40640;48.130;11.356;2023-04-03T11:41:54;96158.00;;;5.90
54746;BMP180;40640;48.130;11.356;2023-04-03T11:46:11;96164.00;;;6.60
54746;BMP180;40640;48.130;11.356;2023-04-03T11:50:42;96162.00;;;7.00
54746;BMP180;40640;48.130;11.356;2023-04-03T11:54:48;96164.00;;;6.80
54746;BMP180;40640;48.130;11.356;2023-04-03T12:03:34;96150.00;;;6.20
54746;BMP180;40640;48.130;11.356;2023-04-03T12:08:22;96154.00;;;6.60
54746;BMP180;40640;48.130;11.356;2023-04-03T12:12:34;96161.00;;;7.90
54746;BMP180;40640;48.130;11.356;2023-04-03T12:16:43;96145.00;;;8.40
54746;BMP180;40640;48.130;11.356;2023-04-03T12:20:57;96163.00;;;8.80
54746;BMP180;40640;48.130;11.356;2023-04-03T12:25:41;96145.00;;;9.30
54746;BMP180;40640;48.130;11.356;2023-04-03T12:29:55;96147.00;;;8.00
54746;BMP180;40640;48.130;11.356;2023-04-03T12:34:07;96154.00;;;7.70
54746;BMP180;40640;48.130;11.356;2023-04-03T12:38:26;96150.00;;;7.40
54746;BMP180;40640;48.130;11.356;2023-04-03T12:42:55;96138.00;;;7.60
54746;BMP180;40640;48.130;11.356;2023-04-03T12:47:18;96139.00;;;7.50
54746;BMP180;40640;48.130;11.356;2023-04-03T12:51:28;96135.00;;;8.80
54746;BMP180;40640;48.130;11.356;2023-04-03T12:55:33;96140.00;;;9.60
54746;BMP180;40640;48.130;11.356;2023-04-03T12:59:36;96133.00;;;9.90
54746;BMP180;40640;48.130;11.356;2023-04-03T13:03:43;96135.00;;;11.00
54746;BMP180;40640;48.130;11.356;2023-04-03T13:07:49;96133.00;;;10.20
54746;BMP180;40640;48.130;11.356;2023-04-03T13:11:58;96124.00;;;9.20
54746;BMP180;40640;48.130;11.356;2023-04-03T13:16:08;96120.00;;;8.90
54746;BMP180;40640;48.130;11.356;2023-04-03T13:20:17;96123.00;;;9.00
54746;BMP180;40640;48.130;11.356;2023-04-03T13:24:21;96117.00;;;9.70
54746;BMP180;40640;48.130;11.356;2023-04-03T13:28:24;96107.00;;;10.50
54746;BMP180;40640;48.130;11.356;2023-04-03T13:32:29;96121.00;;;10.50
54746;BMP180;40640;48.130;11.356;2023-04-03T13:36:37;96122.00;;;9.50
54746;BMP180;40640;48.130;11.356;2023-04-03T13:40:47;96113.00;;;8.20
54746;BMP180;40640;48.130;11.356;2023-04-03T13:49:32;96101.00;;;8.20
54746;BMP180;40640;48.130;11.356;2023-04-03T13:53:43;96116.00;;;8.30
54746;BMP180;40640;48.130;11.356;2023-04-03T13:57:52;96111.00;;;8.30
54746;BMP180;40640;48.130;11.356;2023-04-03T14:02:10;96103.00;;;8.40
54746;BMP180;40640;48.130;11.356;2023-04-03T14:06:16;96111.00;;;8.70
54746;BMP180;40640;48.130;11.356;2023-04-03T14:10:20;96103.00;;;8.60
54746;BMP180;40640;48.130;11.356;2023-04-03T14:14:27;96102.00;;;8.10
54746;BMP180;40640;48.130;11.356;2023-04-03T14:18:30;96106.00;;;7.80
54746;BMP180;40640;48.130;11.356;2023-04-03T14:22:33;96099.00;;;8.10
54746;BMP180;40640;48.130;11.356;2023-04-03T14:26:37;96098.00;;;8.40
54746;BMP180;40640;48.130;11.356;2023-04-03T14:30:40;96091.00;;;8.00
54746;BMP180;40640;48.130;11.356;2023-04-03T14:34:44;96096.00;;;8.10
54746;BMP180;40640;48.130;11.356;2023-04-03T14:38:48;96090.00;;;7.90
54746;BMP180;40640;48.130;11.356;2023-04-03T14:42:53;96090.00;;;8.50
54746;BMP180;40640;48.130;11.356;2023-04-03T14:46:58;96089.00;;;9.20
54746;BMP180;40640;48.130;11.356;2023-04-03T14:51:03;96094.00;;;9.10
54746;BMP180;40640;48.130;11.356;2023-04-03T14:55:07;96089.00;;;9.10
54746;BMP180;40640;48.130;11.356;2023-04-03T14:59:13;96088.00;;;9.40
54746;BMP180;40640;48.130;11.356;2023-04-03T15:03:21;96095.00;;;9.30
54746;BMP180;40640;48.130;11.356;2023-04-03T15:07:27;96089.00;;;9.30
54746;BMP180;40640;48.130;11.356;2023-04-03T15:11:31;96092.00;;;9.40
54746;BMP180;40640;48.130;11.356;2023-04-03T15:15:36;96094.00;;;9.40
54746;BMP180;40640;48.130;11.356;2023-04-03T15:19:40;96095.00;;;9.50
54746;BMP180;40640;48.130;11.356;2023-04-03T15:23:42;96094.00;;;9.70
54746;BMP180;40640;48.130;11.356;2023-04-03T15:27:45;96102.00;;;9.80
54746;BMP180;40640;48.130;11.356;2023-04-03T15:31:50;96098.00;;;9.50
54746;BMP180;40640;48.130;11.356;2023-04-03T15:35:55;96080.00;;;9.30
54746;BMP180;40640;48.130;11.356;2023-04-03T15:40:08;96083.00;;;9.60
54746;BMP180;40640;48.130;11.356;2023-04-03T15:44:11;96089.00;;;9.80
54746;BMP180;40640;48.130;11.356;2023-04-03T15:48:16;96097.00;;;9.90
54746;BMP180;40640;48.130;11.356;2023-04-03T15:52:19;96093.00;;;9.50
54746;BMP180;40640;48.130;11.356;2023-04-03T15:56:22;96096.00;;;9.30
54746;BMP180;40640;48.130;11.356;2023-04-03T16:00:25;96095.00;;;9.20
54746;BMP180;40640;48.130;11.356;2023-04-03T16:04:30;96088.00;;;9.30
54746;BMP180;40640;48.130;11.356;2023-04-03T16:08:33;96095.00;;;9.40
54746;BMP180;40640;48.130;11.356;2023-04-03T16:12:38;96092.00;;;9.40
54746;BMP180;40640;48.130;11.356;2023-04-03T16:16:40;96097.00;;;9.30
54746;BMP180;40640;48.130;11.356;2023-04-03T16:20:48;96100.00;;;9.30
54746;BMP180;40640;48.130;11.356;2023-04-03T16:24:51;96108.00;;;9.30
54746;BMP180;40640;48.130;11.356;2023-04-03T16:28:54;96103.00;;;9.30
54746;BMP180;40640;48.130;11.356;2023-04-03T16:32:57;96107.00;;;9.30
54746;BMP180;40640;48.130;11.356;2023-04-03T16:37:01;96109.00;;;9.20
54746;BMP180;40640;48.130;11.356;2023-04-03T16:41:04;96116.00;;;9.00
54746;BMP180;40640;48.130;11.356;2023-04-03T16:45:08;96116.00;;;9.00
54746;BMP180;40640;48.130;11.356;2023-04-03T16:49:11;96118.00;;;8.90
54746;BMP180;40640;48.130;11.356;2023-04-03T16:53:15;96121.00;;;8.80
54746;BMP180;40640;48.130;11.356;2023-04-03T16:57:18;96126.00;;;8.70
54746;BMP180;40640;48.130;11.356;2023-04-03T17:01:22;96127.00;;;8.50
54746;BMP180;40640;48.130;11.356;2023-04-03T17:05:25;96122.00;;;8.50
54746;BMP180;40640;48.130;11.356;2023-04-03T17:09:29;96120.00;;;8.40
54746;BMP180;40640;48.130;11.356;2023-04-03T17:13:32;96132.00;;;8.30
54746;BMP180;40640;48.130;11.356;2023-04-03T17:17:35;96123.00;;;8.30
54746;BMP180;40640;48.130;11.356;2023-04-03T17:21:38;96137.00;;;8.30
54746;BMP180;40640;48.130;11.356;2023-04-03T17:25:43;96137.00;;;8.10
54746;BMP180;40640;48.130;11.356;2023-04-03T17:29:46;96136.00;;;7.80
54746;BMP180;40640;48.130;11.356;2023-04-03T17:33:49;96134.00;;;7.60
54746;BMP180;40640;48.130;11.356;2023-04-03T17:37:51;96139.00;;;7.50
54746;BMP180;40640;48.130;11.356;2023-04-03T17:41:56;96138.00;;;7.40
54746;BMP180;40640;48.130;11.356;2023-04-03T17:46:00;96137.00;;;7.40
54746;BMP180;40640;48.130;11.356;2023-04-03T17:50:05;96140.00;;;7.10
54746;BMP180;40640;48.130;11.356;2023-04-03T17:54:09;96139.00;;;7.10
54746;BMP180;40640;48.130;11.356;2023-04-03T17:58:13;96149.00;;;6.80
54746;BMP180;40640;48.130;11.356;2023-04-03T18:02:16;96146.00;;;6.80
54746;BMP180;40640;48.130;11.356;2023-04-03T18:06:21;96151.00;;;6.70
54746;BMP180;40640;48.130;11.356;2023-04-03T18:10:25;96147.00;;;6.50
54746;BMP180;40640;48.130;11.356;2023-04-03T18:14:31;96143.00;;;6.40
54746;BMP180;40640;48.130;11.356;2023-04-03T18:18:35;96145.00;;;6.30
54746;BMP180;40640;48.130;11.356;2023-04-03T18:22:38;96160.00;;;6.20
54746;BMP180;40640;48.130;11.356;2023-04-03T18:26:42;96152.00;;;6.20
54746;BMP180;40640;48.130;11.356;2023-04-03T18:30:48;96162.00;;;5.90
54746;BMP180;40640;48.130;11.356;2023-04-03T18:34:51;96165.00;;;5.90
54746;BMP180;40640;48.130;11.356;2023-04-03T18:38:54;96157.00;;;5.80
54746;BMP180;40640;48.130;11.356;2023-04-03T18:42:58;96158.00;;;5.80
54746;BMP180;40640;48.130;11.356;2023-04-03T18:47:03;96155.00;;;5.60
54746;BMP180;40640;48.130;11.356;2023-04-03T18:51:06;96170.00;;;5.60
54746;BMP180;40640;48.130;11.356;2023-04-03T18:55:09;96170.00;;;5.60
54746;BMP180;40640;48.130;11.356;2023-04-03T18:59:14;96173.00;;;5.40
54746;BMP180;40640;48.130;11.356;2023-04-03T19:03:18;96172.00;;;5.30
54746;BMP180;40640;48.130;11.356;2023-04-03T19:07:21;96173.00;;;5.30
54746;BMP180;40640;48.130;11.356;2023-04-03T19:11:24;96177.00;;;5.40
54746;BMP180;40640;48.130;11.356;2023-04-03T19:15:30;96171.00;;;5.20
54746;BMP180;40640;48.130;11.356;2023-04-03T19:19:34;96176.00;;;5.10
54746;BMP180;40640;48.130;11.356;2023-04-03T19:23:37;96174.00;;;5.00
54746;BMP180;40640;48.130;11.356;2023-04-03T19:27:43;96174.00;;;4.70
54746;BMP180;40640;48.130;11.356;2023-04-03T19:31:46;96182.00;;;4.70
54746;BMP180;40640;48.130;11.356;2023-04-03T19:35:50;96174.00;;;4.80
54746;BMP180;40640;48.130;11.356;2023-04-03T19:39:53;96180.00;;;4.60
54746;BMP180;40640;48.130;11.356;2023-04-03T19:43:56;96189.00;;;4.60
54746;BMP180;40640;48.130;11.356;2023-04-03T19:47:59;96166.00;;;4.30
54746;BMP180;40640;48.130;11.356;2023-04-03T19:52:04;96183.00;;;4.30
54746;BMP180;40640;48.130;11.356;2023-04-03T19:56:07;96183.00;;;4.30
54746;BMP180;40640;48.130;11.356;2023-04-03T20:00:11;96165.00;;;4.30
54746;BMP180;40640;48.130;11.356;2023-04-03T20:04:14;96185.00;;;4.10
54746;BMP180;40640;48.130;11.356;2023-04-03T20:08:19;96175.00;;;3.90
54746;BMP180;40640;48.130;11.356;2023-04-03T20:12:22;96184.00;;;4.10
54746;BMP180;40640;48.130;11.356;2023-04-03T20:16:25;96185.00;;;4.10
54746;BMP180;40640;48.130;11.356;2023-04-03T20:20:29;96189.00;;;4.00
54746;BMP180;40640;48.130;11.356;2023-04-03T20:24:33;96177.00;;;4.10
54746;BMP180;40640;48.130;11.356;2023-04-03T20:28:36;96185.00;;;4.00
54746;BMP180;40640;48.130;11.356;2023-04-03T20:32:39;96188.00;;;4.10
54746;BMP180;40640;48.130;11.356;2023-04-03T20:36:42;96183.00;;;3.90
54746;BMP180;40640;48.130;11.356;2023-04-03T20:40:51;96183.00;;;4.20
54746;BMP180;40640;48.130;11.356;2023-04-03T20:44:54;96183.00;;;4.00
54746;BMP180;40640;48.130;11.356;2023-04-03T20:48:57;96179.00;;;3.80
54746;BMP180;40640;48.130;11.356;2023-04-03T20:53:01;96185.00;;;3.90
54746;BMP180;40640;48.130;11.356;2023-04-03T20:57:05;96186.00;;;3.80
54746;BMP180;40640;48.130;11.356;2023-04-03T21:01:13;96182.00;;;3.90
54746;BMP180;40640;48.130;11.356;2023-04-03T21:05:17;96181.00;;;3.60
54746;BMP180;40640;48.130;11.356;2023-04-03T21:23:04;96167.00;;;3.70
54746;BMP180;40640;48.130;11.356;2023-04-03T21:27:07;96172.00;;;3.80
54746;BMP180;40640;48.130;11.356;2023-04-03T21:31:10;96177.00;;;3.60
54746;BMP180;40640;48.130;11.356;2023-04-03T21:35:16;96172.00;;;3.50
54746;BMP180;40640;48.130;11.356;2023-04-03T21:39:20;96169.00;;;3.50
54746;BMP180;40640;48.130;11.356;2023-04-03T21:43:23;96170.00;;;3.40
54746;BMP180;40640;48.130;11.356;2023-04-03T21:47:27;96167.00;;;3.50
54746;BMP180;40640;48.130;11.356;2023-04-03T21:51:31;96170.00;;;3.40
54746;BMP180;40640;48.130;11.356;2023-04-03T21:55:34;96160.00;;;3.30
54746;BMP180;40640;48.130;11.356;2023-04-03T21:59:37;96155.00;;;3.30
54746;BMP180;40640;48.130;11.356;2023-04-03T22:03:41;96154.00;;;3.30
54746;BMP180;40640;48.130;11.356;2023-04-03T22:07:46;96153.00;;;3.20
54746;BMP180;40640;48.130;11.356;2023-04-03T22:11:48;96149.00;;;3.20
54746;BMP180;40640;48.130;11.356;2023-04-03T22:15:52;96151.00;;;3.20
54746;BMP180;40640;48.130;11.356;2023-04-03T22:19:55;96156.00;;;3.00
54746;BMP180;40640;48.130;11.356;2023-04-03T22:23:59;96153.00;;;3.10
54746;BMP180;40640;48.130;11.356;2023-04-03T22:28:02;96162.00;;;3.40
54746;BMP180;40640;48.130;11.356;2023-04-03T22:32:05;96155.00;;;3.20
54746;BMP180;40640;48.130;11.356;2023-04-03T22:36:09;96145.00;;;3.00
54746;BMP180;40640;48.130;11.356;2023-04-03T22:40:14;96151.00;;;3.20
54746;BMP180;40640;48.130;11.356;2023-04-03T22:44:17;96148.00;;;3.10
54746;BMP180;40640;48.130;11.356;2023-04-03T22:48:20;96139.00;;;3.00
54746;BMP180;40640;48.130;11.356;2023-04-03T22:52:23;96146.00;;;3.00
54746;BMP180;40640;48.130;11.356;2023-04-03T22:56:27;96147.00;;;3.10
54746;BMP180;40640;48.130;11.356;2023-04-03T23:00:30;96139.00;;;2.90
54746;BMP180;40640;48.130;11.356;2023-04-03T23:04:33;96146.00;;;3.00
54746;BMP180;40640;48.130;11.356;2023-04-03T23:08:37;96149.00;;;3.00
54746;BMP180;40640;48.130;11.356;2023-04-03T23:12:42;96150.00;;;2.90
54746;BMP180;40640;48.130;11.356;2023-04-03T23:16:45;96145.00;;;2.70
54746;BMP180;40640;48.130;11.356;2023-04-03T23:20:48;96133.00;;;2.70
54746;BMP180;40640;48.130;11.356;2023-04-03T23:24:52;96147.00;;;2.60
54746;BMP180;40640;48.130;11.356;2023-04-03T23:28:56;96145.00;;;2.50
54746;BMP180;40640;48.130;11.356;2023-04-03T23:32:59;96147.00;;;2.70
54746;BMP180;40640;48.130;11.356;2023-04-03T23:37:02;96140.00;;;2.60
54746;BMP180;40640;48.130;11.356;2023-04-03T23:41:05;96149.00;;;2.60
54746;BMP180;40640;48.130;11.356;2023-04-03T23:45:09;96140.00;;;2.60
54746;BMP180;40640;48.130;11.356;2023-04-03T23:49:12;96134.00;;;2.60
54746;BMP180;40640;48.130;11.356;2023-04-03T23:53:15;96133.00;;;2.50
54746;BMP180;40640;48.130;11.356;2023-04-03T23:57:18;96136.00;;;2.50
